sensor_id;sensor_type;location;lat;lon;timestamp;pressure;altitude;pressure_sealevel;temperature;humidity
69214;BME280;56325;47.030;18.518;2023-04-08T00:01:53;100623.50;;;6.75;84.45
69214;BME280;56325;47.030;18.518;2023-04-08T00:04:28;100629.75;;;6.76;84.15
69214;BME280;56325;47.030;18.518;2023-04-08T00:07:05;100616.56;;;6.71;84.19
69214;BME280;56325;47.030;18.518;2023-04-08T00:09:39;100622.03;;;6.71;84.83
69214;BME280;56325;47.030;18.518;2023-04-08T00:12:14;100618.59;;;6.67;84.62
69214;BME280;56325;47.030;18.518;2023-04-08T00:14:48;100622.41;;;6.53;85.42
69214;BME280;56325;47.030;18.518;2023-04-08T00:17:23;100625.12;;;6.53;85.87
69214;BME280;56325;47.030;18.518;2023-04-08T00:19:58;100616.72;;;6.64;85.51
69214;BME280;56325;47.030;18.518;2023-04-08T00:22:34;100621.91;;;6.58;85.55
69214;BME280;56325;47.030;18.518;2023-04-08T00:25:09;100620.50;;;6.70;85.33
69214;BME280;56325;47.030;18.518;2023-04-08T00:27:44;100625.25;;;6.66;85.48
69214;BME280;56325;47.030;18.518;2023-04-08T00:30:19;100626.81;;;6.67;85.37
69214;BME280;56325;47.030;18.518;2023-04-08T00:32:54;100628.75;;;6.66;85.54
69214;BME280;56325;47.030;18.518;2023-04-08T00:35:29;100629.97;;;6.65;85.44
69214;BME280;56325;47.030;18.518;2023-04-08T00:38:04;100623.31;;;6.66;85.59
69214;BME280;56325;47.030;18.518;2023-04-08T00:40:40;100631.56;;;6.63;85.06
69214;BME280;56325;47.030;18.518;2023-04-08T00:43:14;100631.00;;;6.51;85.65
69214;BME280;56325;47.030;18.518;2023-04-08T00:45:53;100634.31;;;6.43;86.43
69214;BME280;56325;47.030;18.518;2023-04-08T00:48:28;100633.53;;;6.42;86.69
69214;BME280;56325;47.030;18.518;2023-04-08T00:51:03;100641.00;;;6.18;87.61
69214;BME280;56325;47.030;18.518;2023-04-08T00:53:39;100634.38;;;6.19;87.86
69214;BME280;56325;47.030;18.518;2023-04-08T00:56:14;100639.91;;;6.36;87.43
69214;BME280;56325;47.030;18.518;2023-04-08T00:58:48;100631.38;;;6.53;86.45
69214;BME280;56325;47.030;18.518;2023-04-08T01:01:31;100634.78;;;6.57;86.00
69214;BME280;56325;47.030;18.518;2023-04-08T01:04:13;100635.78;;;6.47;86.05
69214;BME280;56325;47.030;18.518;2023-04-08T01:06:58;100645.31;;;6.39;86.49
69214;BME280;56325;47.030;18.518;2023-04-08T01:09:38;100638.88;;;6.49;86.77
69214;BME280;56325;47.030;18.518;2023-04-08T01:12:19;100638.50;;;6.47;86.78
69214;BME280;56325;47.030;18.518;2023-04-08T01:14:57;100643.34;;;6.40;87.06
69214;BME280;56325;47.030;18.518;2023-04-08T01:17:35;100635.41;;;6.25;87.39
69214;BME280;56325;47.030;18.518;2023-04-08T01:20:12;100633.69;;;6.35;87.10
69214;BME280;56325;47.030;18.518;2023-04-08T01:23:01;100634.88;;;6.34;87.13
69214;BME280;56325;47.030;18.518;2023-04-08T01:25:39;100634.88;;;6.34;87.06
69214;BME280;56325;47.030;18.518;2023-04-08T01:28:17;100642.28;;;6.34;87.12
69214;BME280;56325;47.030;18.518;2023-04-08T01:30:54;100641.44;;;6.37;86.91
69214;BME280;56325;47.030;18.518;2023-04-08T01:33:32;100636.28;;;6.42;86.69
69214;BME280;56325;47.030;18.518;2023-04-08T01:36:08;100635.09;;;6.43;86.73
69214;BME280;56325;47.030;18.518;2023-04-08T01:38:45;100635.09;;;6.43;86.58
69214;BME280;56325;47.030;18.518;2023-04-08T01:41:20;100630.03;;;6.42;86.63
69214;BME280;56325;47.030;18.518;2023-04-08T01:43:57;100628.84;;;6.43;86.82
69214;BME280;56325;47.030;18.518;2023-04-08T01:46:35;100624.16;;;6.43;86.70
69214;BME280;56325;47.030;18.518;2023-04-08T01:49:10;100625.69;;;6.44;86.13
69214;BME280;56325;47.030;18.518;2023-04-08T01:51:46;100624.66;;;6.38;85.99
69214;BME280;56325;47.030;18.518;2023-04-08T01:54:23;100630.09;;;6.38;86.01
69214;BME280;56325;47.030;18.518;2023-04-08T01:56:58;100623.44;;;6.39;85.67
69214;BME280;56325;47.030;18.518;2023-04-08T01:59:37;100631.38;;;6.34;85.95
69214;BME280;56325;47.030;18.518;2023-04-08T02:02:14;100627.94;;;6.30;85.92
69214;BME280;56325;47.030;18.518;2023-04-08T02:04:49;100630.78;;;6.22;86.18
69214;BME280;56325;47.030;18.518;2023-04-08T02:07:23;100622.66;;;6.19;86.11
69214;BME280;56325;47.030;18.518;2023-04-08T02:10:02;100633.09;;;6.24;86.30
69214;BME280;56325;47.030;18.518;2023-04-08T02:12:41;100622.66;;;6.19;85.80
69214;BME280;56325;47.030;18.518;2023-04-08T02:15:17;100628.75;;;6.07;86.52
69214;BME280;56325;47.030;18.518;2023-04-08T02:17:55;100632.81;;;5.99;86.85
69214;BME280;56325;47.030;18.518;2023-04-08T02:20:37;100634.78;;;5.98;86.93
69214;BME280;56325;47.030;18.518;2023-04-08T02:23:19;100638.16;;;6.06;86.72
69214;BME280;56325;47.030;18.518;2023-04-08T02:25:55;100630.81;;;6.03;86.53
69214;BME280;56325;47.030;18.518;2023-04-08T02:28:32;100633.66;;;5.96;86.89
69214;BME280;56325;47.030;18.518;2023-04-08T02:31:11;100634.00;;;5.98;86.73
69214;BME280;56325;47.030;18.518;2023-04-08T02:33:50;100628.25;;;6.12;87.04
69214;BME280;56325;47.030;18.518;2023-04-08T02:36:25;100627.84;;;6.13;86.78
69214;BME280;56325;47.030;18.518;2023-04-08T02:39:00;100634.50;;;6.12;86.75
69214;BME280;56325;47.030;18.518;2023-04-08T02:41:35;100626.03;;;6.27;86.39
69214;BME280;56325;47.030;18.518;2023-04-08T02:44:09;100629.19;;;6.25;86.14
69214;BME280;56325;47.030;18.518;2023-04-08T02:46:46;100631.50;;;6.27;85.96
69214;BME280;56325;47.030;18.518;2023-04-08T02:49:21;100639.34;;;6.24;86.29
69214;BME280;56325;47.030;18.518;2023-04-08T02:51:56;100638.22;;;6.22;86.28
69214;BME280;56325;47.030;18.518;2023-04-08T02:54:31;100633.09;;;6.24;86.19
69214;BME280;56325;47.030;18.518;2023-04-08T02:57:05;100639.88;;;6.16;86.38
69214;BME280;56325;47.030;18.518;2023-04-08T02:59:40;100640.19;;;6.21;86.28
69214;BME280;56325;47.030;18.518;2023-04-08T03:02:16;100637.28;;;6.09;86.08
69214;BME280;56325;47.030;18.518;2023-04-08T03:04:51;100638.75;;;5.94;86.88
69214;BME280;56325;47.030;18.518;2023-04-08T03:07:26;100636.87;;;5.90;87.38
69214;BME280;56325;47.030;18.518;2023-04-08T03:10:00;100634.56;;;5.89;87.70
69214;BME280;56325;47.030;18.518;2023-04-08T03:12:35;100627.22;;;5.82;87.56
69214;BME280;56325;47.030;18.518;2023-04-08T03:15:09;100629.25;;;5.78;87.59
69214;BME280;56325;47.030;18.518;2023-04-08T03:17:46;100631.50;;;5.83;87.97
69214;BME280;56325;47.030;18.518;2023-04-08T03:20:20;100639.38;;;5.78;87.72
69214;BME280;56325;47.030;18.518;2023-04-08T03:22:55;100628.28;;;5.88;87.64
69214;BME280;56325;47.030;18.518;2023-04-08T03:25:29;100634.50;;;5.93;87.64
69214;BME280;56325;47.030;18.518;2023-04-08T03:28:04;100636.47;;;5.88;87.32
69214;BME280;56325;47.030;18.518;2023-04-08T03:30:38;100639.19;;;5.92;87.51
69214;BME280;56325;47.030;18.518;2023-04-08T03:33:15;100644.22;;;5.94;87.30
69214;BME280;56325;47.030;18.518;2023-04-08T03:35:49;100640.41;;;5.87;87.30
69214;BME280;56325;47.030;18.518;2023-04-08T03:38:24;100635.56;;;5.99;87.05
69214;BME280;56325;47.030;18.518;2023-04-08T03:40:59;100640.03;;;5.85;87.42
69214;BME280;56325;47.030;18.518;2023-04-08T03:43:33;100640.03;;;5.85;87.61
69214;BME280;56325;47.030;18.518;2023-04-08T03:46:09;100636.87;;;5.90;87.39
69214;BME280;56325;47.030;18.518;2023-04-08T03:48:45;100633.03;;;5.84;87.46
69214;BME280;56325;47.030;18.518;2023-04-08T03:51:20;100636.59;;;5.81;87.59
69214;BME280;56325;47.030;18.518;2023-04-08T03:53:55;100644.50;;;5.76;87.66
69214;BME280;56325;47.030;18.518;2023-04-08T03:56:29;100648.06;;;5.73;87.65
69214;BME280;56325;47.030;18.518;2023-04-08T03:59:04;100652.03;;;5.68;88.20
69214;BME280;56325;47.030;18.518;2023-04-08T04:01:38;100643.25;;;5.80;88.28
69214;BME280;56325;47.030;18.518;2023-04-08T04:04:15;100652.91;;;5.85;87.89
69214;BME280;56325;47.030;18.518;2023-04-08T04:06:50;100650.53;;;5.87;87.83
69214;BME280;56325;47.030;18.518;2023-04-08T04:09:25;100653.59;;;5.93;87.89
69214;BME280;56325;47.030;18.518;2023-04-08T04:11:59;100663.00;;;5.88;87.61
69214;BME280;56325;47.030;18.518;2023-04-08T04:14:34;100657.94;;;5.90;87.74
69214;BME280;56325;47.030;18.518;2023-04-08T04:17:08;100666.78;;;5.98;87.29
69214;BME280;56325;47.030;18.518;2023-04-08T04:19:45;100685.16;;;5.94;87.07
69214;BME280;56325;47.030;18.518;2023-04-08T04:22:20;100677.66;;;5.74;87.93
69214;BME280;56325;47.030;18.518;2023-04-08T04:24:54;100679.03;;;5.86;87.66
69214;BME280;56325;47.030;18.518;2023-04-08T04:27:29;100681.44;;;5.80;87.86
69214;BME280;56325;47.030;18.518;2023-04-08T04:30:05;100675.28;;;5.76;88.35
69214;BME280;56325;47.030;18.518;2023-04-08T04:32:44;100677.25;;;5.76;88.17
69214;BME280;56325;47.030;18.518;2023-04-08T04:35:20;100681.16;;;5.75;88.71
69214;BME280;56325;47.030;18.518;2023-04-08T04:37:54;100675.41;;;5.69;88.49
69214;BME280;56325;47.030;18.518;2023-04-08T04:40:29;100668.75;;;5.70;88.60
69214;BME280;56325;47.030;18.518;2023-04-08T04:43:04;100670.72;;;5.70;88.62
69214;BME280;56325;47.030;18.518;2023-04-08T04:45:38;100674.22;;;5.70;88.78
69214;BME280;56325;47.030;18.518;2023-04-08T04:48:13;100672.66;;;5.69;89.03
69214;BME280;56325;47.030;18.518;2023-04-08T04:50:54;100676.09;;;5.73;88.79
69214;BME280;56325;47.030;18.518;2023-04-08T04:53:29;100680.66;;;5.56;89.06
69214;BME280;56325;47.030;18.518;2023-04-08T04:56:04;100684.06;;;5.64;89.51
69214;BME280;56325;47.030;18.518;2023-04-08T04:58:39;100692.47;;;5.73;89.16
69214;BME280;56325;47.030;18.518;2023-04-08T05:01:14;100686.75;;;5.91;88.67
69214;BME280;56325;47.030;18.518;2023-04-08T05:03:48;100695.72;;;5.91;88.67
69214;BME280;56325;47.030;18.518;2023-04-08T05:06:24;100697.47;;;5.78;88.45
69214;BME280;56325;47.030;18.518;2023-04-08T05:08:59;100695.94;;;5.77;88.38
69214;BME280;56325;47.030;18.518;2023-04-08T05:11:34;100695.69;;;5.68;88.91
69214;BME280;56325;47.030;18.518;2023-04-08T05:14:08;100694.84;;;5.71;89.20
69214;BME280;56325;47.030;18.518;2023-04-08T05:16:43;100700.56;;;5.80;88.85
69214;BME280;56325;47.030;18.518;2023-04-08T05:19:18;100706.31;;;5.86;88.71
69214;BME280;56325;47.030;18.518;2023-04-08T05:21:54;100701.97;;;5.88;88.78
69214;BME280;56325;47.030;18.518;2023-04-08T05:24:29;100693.88;;;9.46;100.00
69214;BME280;56325;47.030;18.518;2023-04-08T05:27:03;100700.50;;;8.81;93.97
69214;BME280;56325;47.030;18.518;2023-04-08T05:29:38;100699.94;;;7.83;90.45
69214;BME280;56325;47.030;18.518;2023-04-08T05:32:13;100703.66;;;7.24;87.27
69214;BME280;56325;47.030;18.518;2023-04-08T05:34:48;100698.44;;;6.94;87.48
69214;BME280;56325;47.030;18.518;2023-04-08T05:37:24;100704.78;;;6.71;87.13
69214;BME280;56325;47.030;18.518;2023-04-08T05:39:59;100713.47;;;6.46;86.91
69214;BME280;56325;47.030;18.518;2023-04-08T05:42:34;100716.69;;;6.41;87.70
69214;BME280;56325;47.030;18.518;2023-04-08T05:45:09;100717.28;;;6.29;87.61
69214;BME280;56325;47.030;18.518;2023-04-08T05:47:44;100719.34;;;6.45;87.94
69214;BME280;56325;47.030;18.518;2023-04-08T05:50:19;100718.00;;;6.33;87.52
69214;BME280;56325;47.030;18.518;2023-04-08T05:52:55;100725.84;;;6.31;88.21
69214;BME280;56325;47.030;18.518;2023-04-08T05:55:29;100717.44;;;6.42;88.18
69214;BME280;56325;47.030;18.518;2023-04-08T05:58:04;100726.91;;;6.37;87.86
69214;BME280;56325;47.030;18.518;2023-04-08T06:03:08;100726.25;;;6.93;86.38
69214;BME280;56325;47.030;18.518;2023-04-08T06:05:44;100726.25;;;6.93;86.38
69214;BME280;56325;47.030;18.518;2023-04-08T06:08:18;100733.41;;;6.43;87.66
69214;BME280;56325;47.030;18.518;2023-04-08T06:10:53;100727.97;;;6.43;87.36
69214;BME280;56325;47.030;18.518;2023-04-08T06:13:28;100730.75;;;6.40;87.34
69214;BME280;56325;47.030;18.518;2023-04-08T06:16:13;100711.34;;;10.12;100.00
69214;BME280;56325;47.030;18.518;2023-04-08T06:18:50;100729.84;;;8.39;92.09
69214;BME280;56325;47.030;18.518;2023-04-08T06:21:26;100734.91;;;7.43;87.71
69214;BME280;56325;47.030;18.518;2023-04-08T06:24:00;100720.09;;;10.32;100.00
69214;BME280;56325;47.030;18.518;2023-04-08T06:26:35;100731.94;;;9.18;86.09
69214;BME280;56325;47.030;18.518;2023-04-08T06:29:09;100731.50;;;8.37;84.31
69214;BME280;56325;47.030;18.518;2023-04-08T06:31:44;100734.88;;;7.79;83.26
69214;BME280;56325;47.030;18.518;2023-04-08T06:34:20;100741.50;;;7.46;83.35
69214;BME280;56325;47.030;18.518;2023-04-08T06:36:54;100743.25;;;7.36;84.43
69214;BME280;56325;47.030;18.518;2023-04-08T06:39:29;100746.88;;;7.13;84.54
69214;BME280;56325;47.030;18.518;2023-04-08T06:42:03;100741.91;;;7.08;85.16
69214;BME280;56325;47.030;18.518;2023-04-08T06:44:38;100738.09;;;6.86;85.28
69214;BME280;56325;47.030;18.518;2023-04-08T06:47:13;100749.09;;;6.82;85.59
69214;BME280;56325;47.030;18.518;2023-04-08T06:49:50;100737.16;;;6.93;85.87
69214;BME280;56325;47.030;18.518;2023-04-08T06:52:25;100751.06;;;6.82;85.77
69214;BME280;56325;47.030;18.518;2023-04-08T06:55:01;100749.03;;;6.86;86.35
69214;BME280;56325;47.030;18.518;2023-04-08T06:57:36;100753.66;;;6.89;86.19
69214;BME280;56325;47.030;18.518;2023-04-08T07:00:11;100748.69;;;8.21;97.82
69214;BME280;56325;47.030;18.518;2023-04-08T07:02:46;100745.37;;;11.05;98.52
69214;BME280;56325;47.030;18.518;2023-04-08T07:05:24;100744.25;;;11.96;89.83
69214;BME280;56325;47.030;18.518;2023-04-08T07:07:58;100736.62;;;11.69;78.72
69214;BME280;56325;47.030;18.518;2023-04-08T07:10:33;100743.62;;;10.33;76.43
69214;BME280;56325;47.030;18.518;2023-04-08T07:13:08;100752.94;;;9.38;77.06
69214;BME280;56325;47.030;18.518;2023-04-08T07:15:42;100751.56;;;8.63;78.75
69214;BME280;56325;47.030;18.518;2023-04-08T07:18:17;100762.47;;;8.01;80.34
69214;BME280;56325;47.030;18.518;2023-04-08T07:20:54;100768.13;;;7.94;81.07
69214;BME280;56325;47.030;18.518;2023-04-08T07:23:30;100761.63;;;7.72;82.09
69214;BME280;56325;47.030;18.518;2023-04-08T07:26:04;100767.78;;;7.60;82.63
69214;BME280;56325;47.030;18.518;2023-04-08T07:28:39;100771.78;;;7.55;82.47
69214;BME280;56325;47.030;18.518;2023-04-08T07:31:15;100774.47;;;7.39;83.54
69214;BME280;56325;47.030;18.518;2023-04-08T07:33:50;100778.41;;;7.38;82.96
69214;BME280;56325;47.030;18.518;2023-04-08T07:36:27;100783.97;;;7.14;83.41
69214;BME280;56325;47.030;18.518;2023-04-08T07:39:02;100783.06;;;7.01;84.55
69214;BME280;56325;47.030;18.518;2023-04-08T07:41:36;100779.47;;;7.04;84.67
69214;BME280;56325;47.030;18.518;2023-04-08T07:44:11;100780.81;;;6.96;84.54
69214;BME280;56325;47.030;18.518;2023-04-08T07:46:49;100791.25;;;7.01;84.25
69214;BME280;56325;47.030;18.518;2023-04-08T07:49:23;100798.75;;;6.97;84.38
69214;BME280;56325;47.030;18.518;2023-04-08T07:52:00;100789.72;;;7.00;84.43
69214;BME280;56325;47.030;18.518;2023-04-08T07:54:34;100789.37;;;6.98;84.41
69214;BME280;56325;47.030;18.518;2023-04-08T07:57:09;100790.56;;;10.39;100.00
69214;BME280;56325;47.030;18.518;2023-04-08T07:59:44;100787.44;;;11.68;93.65
69214;BME280;56325;47.030;18.518;2023-04-08T08:02:18;100802.97;;;10.43;78.76
69214;BME280;56325;47.030;18.518;2023-04-08T08:04:53;100800.22;;;9.16;78.44
69214;BME280;56325;47.030;18.518;2023-04-08T08:07:29;100801.34;;;8.29;79.59
69214;BME280;56325;47.030;18.518;2023-04-08T08:10:05;100807.34;;;8.07;80.78
69214;BME280;56325;47.030;18.518;2023-04-08T08:12:41;100809.63;;;7.76;81.58
69214;BME280;56325;47.030;18.518;2023-04-08T08:15:15;100813.81;;;7.65;82.32
69214;BME280;56325;47.030;18.518;2023-04-08T08:17:49;100805.28;;;7.43;83.03
69214;BME280;56325;47.030;18.518;2023-04-08T08:20:25;100806.47;;;7.42;83.32
69214;BME280;56325;47.030;18.518;2023-04-08T08:23:01;100816.00;;;7.34;83.96
69214;BME280;56325;47.030;18.518;2023-04-08T08:25:38;100818.53;;;7.24;83.12
69214;BME280;56325;47.030;18.518;2023-04-08T08:28:13;100822.53;;;7.20;84.21
69214;BME280;56325;47.030;18.518;2023-04-08T08:30:47;100826.87;;;7.17;84.35
69214;BME280;56325;47.030;18.518;2023-04-08T08:33:23;100824.16;;;7.17;84.37
69214;BME280;56325;47.030;18.518;2023-04-08T08:35:58;100829.41;;;7.28;83.19
69214;BME280;56325;47.030;18.518;2023-04-08T08:38:34;100809.59;;;9.57;100.00
69214;BME280;56325;47.030;18.518;2023-04-08T08:41:08;100810.41;;;11.43;95.21
69214;BME280;56325;47.030;18.518;2023-04-08T08:43:43;100824.41;;;10.48;83.71
69214;BME280;56325;47.030;18.518;2023-04-08T08:46:18;100819.87;;;9.28;80.58
69214;BME280;56325;47.030;18.518;2023-04-08T08:48:52;100832.34;;;8.58;80.55
69214;BME280;56325;47.030;18.518;2023-04-08T08:51:27;100829.81;;;8.35;81.03
69214;BME280;56325;47.030;18.518;2023-04-08T08:54:06;100837.78;;;7.93;80.51
69214;BME280;56325;47.030;18.518;2023-04-08T08:56:40;100840.31;;;7.68;81.64
69214;BME280;56325;47.030;18.518;2023-04-08T08:59:15;100846.59;;;7.29;82.43
69214;BME280;56325;47.030;18.518;2023-04-08T09:01:50;100848.56;;;6.88;83.23
69214;BME280;56325;47.030;18.518;2023-04-08T09:04:25;100842.78;;;6.83;84.60
69214;BME280;56325;47.030;18.518;2023-04-08T09:07:10;100854.16;;;6.81;84.61
69214;BME280;56325;47.030;18.518;2023-04-08T09:09:50;100850.78;;;6.74;84.73
69214;BME280;56325;47.030;18.518;2023-04-08T09:12:25;100849.47;;;6.58;84.52
69214;BME280;56325;47.030;18.518;2023-04-08T09:15:04;100860.03;;;6.56;85.90
69214;BME280;56325;47.030;18.518;2023-04-08T09:17:39;100857.06;;;6.47;85.24
69214;BME280;56325;47.030;18.518;2023-04-08T09:20:14;100863.66;;;6.50;85.79
69214;BME280;56325;47.030;18.518;2023-04-08T09:22:57;100864.78;;;6.52;86.60
69214;BME280;56325;47.030;18.518;2023-04-08T09:25:33;100872.56;;;6.77;85.72
69214;BME280;56325;47.030;18.518;2023-04-08T09:28:18;100870.72;;;6.71;85.68
69214;BME280;56325;47.030;18.518;2023-04-08T09:30:53;100864.69;;;6.60;85.17
69214;BME280;56325;47.030;18.518;2023-04-08T09:33:31;100871.97;;;6.66;86.21
69214;BME280;56325;47.030;18.518;2023-04-08T09:36:06;100874.75;;;6.86;85.07
69214;BME280;56325;47.030;18.518;2023-04-08T09:38:41;100872.28;;;6.72;84.85
69214;BME280;56325;47.030;18.518;2023-04-08T09:41:17;100867.75;;;6.85;86.45
69214;BME280;56325;47.030;18.518;2023-04-08T09:43:53;100872.16;;;6.99;85.59
69214;BME280;56325;47.030;18.518;2023-04-08T09:46:32;100875.41;;;7.13;85.37
69214;BME280;56325;47.030;18.518;2023-04-08T09:49:11;100884.66;;;7.00;84.42
69214;BME280;56325;47.030;18.518;2023-04-08T09:51:52;100881.72;;;6.90;84.62
69214;BME280;56325;47.030;18.518;2023-04-08T09:54:38;100873.78;;;6.96;83.37
69214;BME280;56325;47.030;18.518;2023-04-08T09:57:21;100884.87;;;6.89;84.22
69214;BME280;56325;47.030;18.518;2023-04-08T10:00:02;100876.75;;;7.05;85.39
69214;BME280;56325;47.030;18.518;2023-04-08T10:02:53;100877.72;;;7.15;84.39
69214;BME280;56325;47.030;18.518;2023-04-08T10:05:30;100881.25;;;7.15;83.02
69214;BME280;56325;47.030;18.518;2023-04-08T10:08:05;100878.84;;;7.17;83.53
69214;BME280;56325;47.030;18.518;2023-04-08T10:10:43;100877.72;;;7.15;84.43
69214;BME280;56325;47.030;18.518;2023-04-08T10:13:21;100880.63;;;7.28;83.21
69214;BME280;56325;47.030;18.518;2023-04-08T10:16:17;100878.84;;;7.17;84.70
69214;BME280;56325;47.030;18.518;2023-04-08T10:18:53;100869.03;;;7.40;84.11
69214;BME280;56325;47.030;18.518;2023-04-08T10:21:39;100881.66;;;7.34;82.68
69214;BME280;56325;47.030;18.518;2023-04-08T10:24:15;100882.19;;;7.05;83.56
69214;BME280;56325;47.030;18.518;2023-04-08T10:26:51;100875.62;;;7.22;83.81
69214;BME280;56325;47.030;18.518;2023-04-08T10:29:44;100876.56;;;7.36;84.27
69214;BME280;56325;47.030;18.518;2023-04-08T10:32:27;100882.94;;;7.49;82.97
69214;BME280;56325;47.030;18.518;2023-04-08T10:35:02;100882.44;;;7.34;85.15
69214;BME280;56325;47.030;18.518;2023-04-08T10:37:37;100881.47;;;7.24;83.41
69214;BME280;56325;47.030;18.518;2023-04-08T10:40:18;100882.03;;;7.36;82.51
69214;BME280;56325;47.030;18.518;2023-04-08T10:42:53;100878.44;;;7.39;82.78
69214;BME280;56325;47.030;18.518;2023-04-08T10:45:29;100881.88;;;7.43;83.44
69214;BME280;56325;47.030;18.518;2023-04-08T10:48:14;100885.88;;;7.58;83.28
69214;BME280;56325;47.030;18.518;2023-04-08T10:50:53;100881.66;;;7.73;83.26
69214;BME280;56325;47.030;18.518;2023-04-08T10:53:29;100887.56;;;7.88;83.08
69214;BME280;56325;47.030;18.518;2023-04-08T10:56:04;100889.09;;;7.73;80.69
69214;BME280;56325;47.030;18.518;2023-04-08T10:58:47;100888.53;;;7.62;82.19
69214;BME280;56325;47.030;18.518;2023-04-08T11:01:24;100884.00;;;7.55;83.23
69214;BME280;56325;47.030;18.518;2023-04-08T11:03:59;100886.72;;;7.55;83.46
69214;BME280;56325;47.030;18.518;2023-04-08T11:06:36;100873.84;;;8.24;92.99
69214;BME280;56325;47.030;18.518;2023-04-08T11:09:11;100874.47;;;10.78;96.33
69214;BME280;56325;47.030;18.518;2023-04-08T11:11:46;100877.84;;;8.39;81.57
69214;BME280;56325;47.030;18.518;2023-04-08T11:14:22;100885.88;;;7.58;83.76
69214;BME280;56325;47.030;18.518;2023-04-08T11:16:58;100888.97;;;7.20;85.43
69214;BME280;56325;47.030;18.518;2023-04-08T11:19:34;100886.19;;;7.01;85.60
69214;BME280;56325;47.030;18.518;2023-04-08T11:22:11;100887.59;;;6.89;87.22
69214;BME280;56325;47.030;18.518;2023-04-08T11:24:46;100881.50;;;7.01;87.48
69214;BME280;56325;47.030;18.518;2023-04-08T11:27:21;100893.66;;;6.77;87.57
69214;BME280;56325;47.030;18.518;2023-04-08T11:30:01;100893.97;;;6.82;87.96
69214;BME280;56325;47.030;18.518;2023-04-08T11:32:38;100892.28;;;6.88;87.52
69214;BME280;56325;47.030;18.518;2023-04-08T11:35:15;100888.13;;;6.80;87.83
69214;BME280;56325;47.030;18.518;2023-04-08T11:37:51;100888.63;;;6.75;88.55
69214;BME280;56325;47.030;18.518;2023-04-08T11:40:26;100891.06;;;6.70;87.26
69214;BME280;56325;47.030;18.518;2023-04-08T11:43:08;100894.09;;;6.75;88.05
69214;BME280;56325;47.030;18.518;2023-04-08T11:45:43;100894.56;;;6.70;88.35
69214;BME280;56325;47.030;18.518;2023-04-08T11:48:19;100889.16;;;6.67;88.59
69214;BME280;56325;47.030;18.518;2023-04-08T11:51:01;100883.63;;;6.70;88.25
69214;BME280;56325;47.030;18.518;2023-04-08T11:53:37;100893.31;;;6.51;88.24
69214;BME280;56325;47.030;18.518;2023-04-08T11:56:17;100893.19;;;6.58;88.61
69214;BME280;56325;47.030;18.518;2023-04-08T11:58:53;100901.91;;;6.50;88.47
69214;BME280;56325;47.030;18.518;2023-04-08T12:01:27;100893.91;;;6.63;88.10
69214;BME280;56325;47.030;18.518;2023-04-08T12:04:03;100888.72;;;6.68;87.52
69214;BME280;56325;47.030;18.518;2023-04-08T12:06:42;100886.91;;;6.62;87.80
69214;BME280;56325;47.030;18.518;2023-04-08T12:09:19;100885.22;;;6.68;87.95
69214;BME280;56325;47.030;18.518;2023-04-08T12:11:53;100892.66;;;6.67;87.04
69214;BME280;56325;47.030;18.518;2023-04-08T12:14:28;100892.00;;;6.60;88.06
69214;BME280;56325;47.030;18.518;2023-04-08T12:17:03;100897.72;;;6.69;88.03
69214;BME280;56325;47.030;18.518;2023-04-08T12:19:39;100885.69;;;6.86;87.91
69214;BME280;56325;47.030;18.518;2023-04-08T12:22:13;100890.47;;;6.82;87.76
69214;BME280;56325;47.030;18.518;2023-04-08T12:24:49;100885.69;;;6.86;88.14
69214;BME280;56325;47.030;18.518;2023-04-08T12:27:23;100894.44;;;6.77;87.67
69214;BME280;56325;47.030;18.518;2023-04-08T12:30:02;100884.69;;;6.76;87.85
69214;BME280;56325;47.030;18.518;2023-04-08T12:32:38;100890.22;;;6.73;87.56
69214;BME280;56325;47.030;18.518;2023-04-08T12:35:14;100888.69;;;7.90;95.78
69214;BME280;56325;47.030;18.518;2023-04-08T12:37:49;100879.03;;;10.59;100.00
69214;BME280;56325;47.030;18.518;2023-04-08T12:40:26;100875.56;;;11.80;98.38
69214;BME280;56325;47.030;18.518;2023-04-08T12:43:03;100882.41;;;11.10;82.05
69214;BME280;56325;47.030;18.518;2023-04-08T12:45:38;100883.19;;;9.20;80.40
69214;BME280;56325;47.030;18.518;2023-04-08T12:48:12;100891.63;;;8.52;81.03
69214;BME280;56325;47.030;18.518;2023-04-08T12:50:48;100896.69;;;8.01;81.45
69214;BME280;56325;47.030;18.518;2023-04-08T12:53:23;100891.97;;;7.66;83.94
69214;BME280;56325;47.030;18.518;2023-04-08T12:55:57;100886.72;;;7.55;84.02
69214;BME280;56325;47.030;18.518;2023-04-08T12:58:32;100889.19;;;7.30;84.61
69214;BME280;56325;47.030;18.518;2023-04-08T13:01:07;100891.16;;;7.29;85.37
69214;BME280;56325;47.030;18.518;2023-04-08T13:03:41;100893.72;;;7.16;85.71
69214;BME280;56325;47.030;18.518;2023-04-08T13:06:20;100898.13;;;7.10;86.10
69214;BME280;56325;47.030;18.518;2023-04-08T13:08:55;100893.69;;;6.97;86.68
69214;BME280;56325;47.030;18.518;2023-04-08T13:11:30;100897.41;;;6.86;86.13
69214;BME280;56325;47.030;18.518;2023-04-08T13:14:06;100889.31;;;6.79;86.78
69214;BME280;56325;47.030;18.518;2023-04-08T13:16:40;100894.87;;;6.96;86.36
69214;BME280;56325;47.030;18.518;2023-04-08T13:19:39;100891.47;;;6.92;87.26
69214;BME280;56325;47.030;18.518;2023-04-08T13:27:06;100890.19;;;6.96;87.28
69214;BME280;56325;47.030;18.518;2023-04-08T13:37:09;100881.78;;;6.87;88.12
69214;BME280;56325;47.030;18.518;2023-04-08T13:43:46;100885.00;;;7.02;87.18
69214;BME280;56325;47.030;18.518;2023-04-08T13:46:45;100865.56;;;10.39;100.00
69214;BME280;56325;47.030;18.518;2023-04-08T13:50:13;100858.25;;;11.58;94.17
69214;BME280;56325;47.030;18.518;2023-04-08T14:00:26;100882.22;;;8.01;83.16
69214;BME280;56325;47.030;18.518;2023-04-08T14:04:23;100882.94;;;7.49;84.08
69214;BME280;56325;47.030;18.518;2023-04-08T14:06:58;100889.66;;;7.24;84.31